sensor_id;sensor_type;location;lat;lon;timestamp;P1;durP1;ratioP1;P2;durP2;ratioP2
22026;SDS011;11177;50.966;10.070;2022-11-15T00:00:51;5.50;;;3.90;;
22026;SDS011;11177;50.966;10.070;2022-11-15T00:03:19;8.65;;;4.05;;
22026;SDS011;11177;50.966;10.070;2022-11-15T00:05:50;7.22;;;4.40;;
22026;SDS011;11177;50.966;10.070;2022-11-15T00:08:17;6.38;;;4.13;;
22026;SDS011;11177;50.966;10.070;2022-11-15T00:10:53;7.68;;;4.47;;
22026;SDS011;11177;50.966;10.070;2022-11-15T00:13:23;4.75;;;4.03;;
22026;SDS011;11177;50.966;10.070;2022-11-15T00:15:51;6.30;;;4.18;;
22026;SDS011;11177;50.966;10.070;2022-11-15T00:18:18;5.60;;;3.75;;
22026;SDS011;11177;50.966;10.070;2022-11-15T00:20:45;8.45;;;4.40;;
22026;SDS011;11177;50.966;10.070;2022-11-15T00:23:11;5.90;;;4.38;;
22026;SDS011;11177;50.966;10.070;2022-11-15T00:25:38;6.07;;;3.97;;
22026;SDS011;11177;50.966;10.070;2022-11-15T00:28:05;5.93;;;3.85;;
22026;SDS011;11177;50.966;10.070;2022-11-15T00:30:33;6.40;;;4.50;;
22026;SDS011;11177;50.966;10.070;2022-11-15T00:33:01;10.85;;;6.43;;
22026;SDS011;11177;50.966;10.070;2022-11-15T00:35:32;12.23;;;7.90;;
22026;SDS011;11177;50.966;10.070;2022-11-15T00:38:00;11.18;;;7.57;;
22026;SDS011;11177;50.966;10.070;2022-11-15T00:40:27;9.63;;;6.90;;
22026;SDS011;11177;50.966;10.070;2022-11-15T00:42:54;8.38;;;5.80;;
22026;SDS011;11177;50.966;10.070;2022-11-15T00:45:22;10.73;;;6.03;;
22026;SDS011;11177;50.966;10.070;2022-11-15T00:47:49;8.13;;;5.95;;
22026;SDS011;11177;50.966;10.070;2022-11-15T00:50:17;10.88;;;6.60;;
22026;SDS011;11177;50.966;10.070;2022-11-15T00:52:44;10.30;;;6.28;;
22026;SDS011;11177;50.966;10.070;2022-11-15T00:55:15;10.30;;;4.88;;
22026;SDS011;11177;50.966;10.070;2022-11-15T00:57:42;7.75;;;4.63;;
22026;SDS011;11177;50.966;10.070;2022-11-15T01:00:09;8.10;;;4.68;;
22026;SDS011;11177;50.966;10.070;2022-11-15T01:02:36;6.60;;;4.10;;
22026;SDS011;11177;50.966;10.070;2022-11-15T01:05:04;5.38;;;4.13;;
22026;SDS011;11177;50.966;10.070;2022-11-15T01:07:31;5.03;;;3.88;;
22026;SDS011;11177;50.966;10.070;2022-11-15T01:09:58;5.93;;;4.22;;
22026;SDS011;11177;50.966;10.070;2022-11-15T01:12:25;7.78;;;5.05;;
22026;SDS011;11177;50.966;10.070;2022-11-15T01:14:51;16.50;;;9.63;;
22026;SDS011;11177;50.966;10.070;2022-11-15T01:17:18;14.75;;;8.88;;
22026;SDS011;11177;50.966;10.070;2022-11-15T01:19:45;12.75;;;9.00;;
22026;SDS011;11177;50.966;10.070;2022-11-15T01:22:11;11.57;;;6.57;;
22026;SDS011;11177;50.966;10.070;2022-11-15T01:24:38;9.95;;;5.55;;
22026;SDS011;11177;50.966;10.070;2022-11-15T01:27:05;9.63;;;5.22;;
22026;SDS011;11177;50.966;10.070;2022-11-15T01:29:32;8.75;;;6.00;;
22026;SDS011;11177;50.966;10.070;2022-11-15T01:31:59;8.65;;;5.70;;
22026;SDS011;11177;50.966;10.070;2022-11-15T01:34:26;8.80;;;5.47;;
22026;SDS011;11177;50.966;10.070;2022-11-15T01:36:53;8.10;;;4.57;;
22026;SDS011;11177;50.966;10.070;2022-11-15T01:39:20;14.68;;;4.53;;
22026;SDS011;11177;50.966;10.070;2022-11-15T01:41:47;7.50;;;4.07;;
22026;SDS011;11177;50.966;10.070;2022-11-15T01:50:08;7.63;;;3.95;;
22026;SDS011;11177;50.966;10.070;2022-11-15T01:52:37;6.30;;;4.07;;
22026;SDS011;11177;50.966;10.070;2022-11-15T01:57:50;7.65;;;4.05;;
22026;SDS011;11177;50.966;10.070;2022-11-15T02:00:20;6.82;;;3.80;;
22026;SDS011;11177;50.966;10.070;2022-11-15T02:02:47;6.95;;;4.10;;
22026;SDS011;11177;50.966;10.070;2022-11-15T02:05:14;6.43;;;4.20;;
22026;SDS011;11177;50.966;10.070;2022-11-15T02:07:41;5.25;;;4.20;;
22026;SDS011;11177;50.966;10.070;2022-11-15T02:10:11;5.38;;;4.10;;
22026;SDS011;11177;50.966;10.070;2022-11-15T02:12:39;6.05;;;4.05;;
22026;SDS011;11177;50.966;10.070;2022-11-15T02:15:07;5.03;;;3.88;;
22026;SDS011;11177;50.966;10.070;2022-11-15T02:18:00;7.15;;;4.03;;
22026;SDS011;11177;50.966;10.070;2022-11-15T02:20:48;6.03;;;3.85;;
22026;SDS011;11177;50.966;10.070;2022-11-15T02:23:58;7.18;;;4.15;;
22026;SDS011;11177;50.966;10.070;2022-11-15T02:27:42;7.35;;;4.10;;
22026;SDS011;11177;50.966;10.070;2022-11-15T02:35:44;6.85;;;4.00;;
22026;SDS011;11177;50.966;10.070;2022-11-15T02:38:36;7.30;;;4.00;;
22026;SDS011;11177;50.966;10.070;2022-11-15T02:41:20;6.13;;;4.20;;
22026;SDS011;11177;50.966;10.070;2022-11-15T02:44:00;6.53;;;4.00;;
22026;SDS011;11177;50.966;10.070;2022-11-15T02:49:40;8.00;;;3.95;;
22026;SDS011;11177;50.966;10.070;2022-11-15T02:52:17;6.65;;;4.03;;
22026;SDS011;11177;50.966;10.070;2022-11-15T02:54:58;5.88;;;3.45;;
22026;SDS011;11177;50.966;10.070;2022-11-15T03:00:48;6.22;;;3.65;;
22026;SDS011;11177;50.966;10.070;2022-11-15T03:06:33;6.20;;;3.72;;
22026;SDS011;11177;50.966;10.070;2022-11-15T03:09:06;4.47;;;3.63;;
22026;SDS011;11177;50.966;10.070;2022-11-15T03:11:51;5.22;;;4.07;;
22026;SDS011;11177;50.966;10.070;2022-11-15T03:14:34;5.25;;;3.50;;
22026;SDS011;11177;50.966;10.070;2022-11-15T03:17:26;4.85;;;3.50;;
22026;SDS011;11177;50.966;10.070;2022-11-15T03:20:01;6.63;;;3.80;;
22026;SDS011;11177;50.966;10.070;2022-11-15T03:22:32;6.63;;;3.97;;
22026;SDS011;11177;50.966;10.070;2022-11-15T03:25:02;5.45;;;3.85;;
22026;SDS011;11177;50.966;10.070;2022-11-15T03:27:35;5.32;;;4.20;;
22026;SDS011;11177;50.966;10.070;2022-11-15T03:30:06;7.97;;;4.68;;
22026;SDS011;11177;50.966;10.070;2022-11-15T03:32:35;5.97;;;4.40;;
22026;SDS011;11177;50.966;10.070;2022-11-15T03:35:12;6.53;;;4.20;;
22026;SDS011;11177;50.966;10.070;2022-11-15T03:37:57;5.90;;;4.03;;
22026;SDS011;11177;50.966;10.070;2022-11-15T03:40:40;6.35;;;4.30;;
22026;SDS011;11177;50.966;10.070;2022-11-15T03:43:56;6.38;;;4.00;;
22026;SDS011;11177;50.966;10.070;2022-11-15T03:48:43;8.15;;;4.30;;
22026;SDS011;11177;50.966;10.070;2022-11-15T03:51:14;6.45;;;4.25;;
22026;SDS011;11177;50.966;10.070;2022-11-15T03:53:41;7.97;;;4.53;;
22026;SDS011;11177;50.966;10.070;2022-11-15T03:56:08;6.97;;;4.30;;
22026;SDS011;11177;50.966;10.070;2022-11-15T03:58:35;5.07;;;4.00;;
22026;SDS011;11177;50.966;10.070;2022-11-15T04:01:02;7.38;;;4.25;;
22026;SDS011;11177;50.966;10.070;2022-11-15T04:03:29;6.38;;;4.28;;
22026;SDS011;11177;50.966;10.070;2022-11-15T04:05:57;8.98;;;4.97;;
22026;SDS011;11177;50.966;10.070;2022-11-15T04:08:23;6.72;;;4.30;;
22026;SDS011;11177;50.966;10.070;2022-11-15T04:10:51;6.72;;;4.03;;
22026;SDS011;11177;50.966;10.070;2022-11-15T04:13:19;5.95;;;4.10;;
22026;SDS011;11177;50.966;10.070;2022-11-15T04:15:46;5.90;;;4.35;;
22026;SDS011;11177;50.966;10.070;2022-11-15T04:18:13;6.32;;;4.70;;
22026;SDS011;11177;50.966;10.070;2022-11-15T04:20:40;7.15;;;4.35;;
22026;SDS011;11177;50.966;10.070;2022-11-15T04:23:25;7.53;;;4.03;;
22026;SDS011;11177;50.966;10.070;2022-11-15T04:26:14;6.10;;;4.18;;
22026;SDS011;11177;50.966;10.070;2022-11-15T04:28:43;10.35;;;4.22;;
22026;SDS011;11177;50.966;10.070;2022-11-15T04:31:28;6.85;;;4.30;;
22026;SDS011;11177;50.966;10.070;2022-11-15T04:33:56;8.35;;;4.35;;
22026;SDS011;11177;50.966;10.070;2022-11-15T04:36:23;10.05;;;4.82;;
22026;SDS011;11177;50.966;10.070;2022-11-15T04:39:09;7.60;;;4.90;;
22026;SDS011;11177;50.966;10.070;2022-11-15T04:41:36;9.40;;;5.03;;
22026;SDS011;11177;50.966;10.070;2022-11-15T04:44:03;7.80;;;4.70;;
22026;SDS011;11177;50.966;10.070;2022-11-15T04:46:30;8.98;;;4.93;;
22026;SDS011;11177;50.966;10.070;2022-11-15T04:48:57;7.05;;;4.72;;
22026;SDS011;11177;50.966;10.070;2022-11-15T04:51:25;8.07;;;4.32;;
22026;SDS011;11177;50.966;10.070;2022-11-15T04:53:51;8.23;;;4.70;;
22026;SDS011;11177;50.966;10.070;2022-11-15T04:56:18;6.78;;;4.68;;
22026;SDS011;11177;50.966;10.070;2022-11-15T04:58:48;9.30;;;5.65;;
22026;SDS011;11177;50.966;10.070;2022-11-15T05:01:15;13.13;;;7.28;;
22026;SDS011;11177;50.966;10.070;2022-11-15T05:03:43;11.27;;;6.68;;
22026;SDS011;11177;50.966;10.070;2022-11-15T05:06:29;8.98;;;5.63;;
22026;SDS011;11177;50.966;10.070;2022-11-15T05:08:56;9.27;;;5.70;;
22026;SDS011;11177;50.966;10.070;2022-11-15T05:11:24;10.27;;;5.65;;
22026;SDS011;11177;50.966;10.070;2022-11-15T05:13:51;9.68;;;5.97;;
22026;SDS011;11177;50.966;10.070;2022-11-15T05:16:18;10.40;;;6.03;;
22026;SDS011;11177;50.966;10.070;2022-11-15T05:18:44;8.57;;;5.57;;
22026;SDS011;11177;50.966;10.070;2022-11-15T05:21:12;9.23;;;5.47;;
22026;SDS011;11177;50.966;10.070;2022-11-15T05:23:40;8.35;;;5.25;;
22026;SDS011;11177;50.966;10.070;2022-11-15T05:26:08;8.57;;;4.90;;
22026;SDS011;11177;50.966;10.070;2022-11-15T05:28:36;7.95;;;5.22;;
22026;SDS011;11177;50.966;10.070;2022-11-15T05:31:07;7.07;;;5.18;;
22026;SDS011;11177;50.966;10.070;2022-11-15T05:33:35;7.18;;;4.63;;
22026;SDS011;11177;50.966;10.070;2022-11-15T05:36:13;11.60;;;4.53;;
22026;SDS011;11177;50.966;10.070;2022-11-15T05:38:45;5.97;;;4.75;;
22026;SDS011;11177;50.966;10.070;2022-11-15T05:41:12;8.57;;;5.10;;
22026;SDS011;11177;50.966;10.070;2022-11-15T05:43:39;7.97;;;4.80;;
22026;SDS011;11177;50.966;10.070;2022-11-15T05:46:07;7.28;;;5.00;;
22026;SDS011;11177;50.966;10.070;2022-11-15T05:48:34;7.72;;;5.22;;
22026;SDS011;11177;50.966;10.070;2022-11-15T05:51:03;7.30;;;5.13;;
22026;SDS011;11177;50.966;10.070;2022-11-15T05:53:31;7.35;;;4.78;;
22026;SDS011;11177;50.966;10.070;2022-11-15T05:55:59;6.60;;;4.85;;
22026;SDS011;11177;50.966;10.070;2022-11-15T05:58:26;6.68;;;4.63;;
22026;SDS011;11177;50.966;10.070;2022-11-15T06:00:53;8.15;;;5.07;;
22026;SDS011;11177;50.966;10.070;2022-11-15T06:03:20;8.00;;;4.95;;
22026;SDS011;11177;50.966;10.070;2022-11-15T06:05:47;7.85;;;5.18;;
22026;SDS011;11177;50.966;10.070;2022-11-15T06:08:14;8.18;;;5.05;;
22026;SDS011;11177;50.966;10.070;2022-11-15T06:10:42;8.02;;;5.13;;
22026;SDS011;11177;50.966;10.070;2022-11-15T06:13:08;9.43;;;5.70;;
22026;SDS011;11177;50.966;10.070;2022-11-15T06:15:35;9.30;;;5.38;;
22026;SDS011;11177;50.966;10.070;2022-11-15T06:18:02;7.72;;;5.50;;
22026;SDS011;11177;50.966;10.070;2022-11-15T06:20:29;8.43;;;4.47;;
22026;SDS011;11177;50.966;10.070;2022-11-15T06:22:57;6.57;;;5.07;;
22026;SDS011;11177;50.966;10.070;2022-11-15T06:25:25;9.95;;;5.45;;
22026;SDS011;11177;50.966;10.070;2022-11-15T06:27:53;7.03;;;5.20;;
22026;SDS011;11177;50.966;10.070;2022-11-15T06:30:21;9.20;;;4.97;;
22026;SDS011;11177;50.966;10.070;2022-11-15T06:32:49;11.23;;;5.25;;
22026;SDS011;11177;50.966;10.070;2022-11-15T06:35:16;8.00;;;5.15;;
22026;SDS011;11177;50.966;10.070;2022-11-15T06:37:43;8.73;;;5.22;;
22026;SDS011;11177;50.966;10.070;2022-11-15T06:40:10;10.38;;;5.75;;
22026;SDS011;11177;50.966;10.070;2022-11-15T06:42:37;7.68;;;5.22;;
22026;SDS011;11177;50.966;10.070;2022-11-15T06:45:04;8.48;;;5.20;;
22026;SDS011;11177;50.966;10.070;2022-11-15T06:47:32;9.85;;;5.35;;
22026;SDS011;11177;50.966;10.070;2022-11-15T06:49:59;9.45;;;5.55;;
22026;SDS011;11177;50.966;10.070;2022-11-15T06:52:25;7.68;;;5.25;;
22026;SDS011;11177;50.966;10.070;2022-11-15T06:54:53;9.57;;;5.43;;
22026;SDS011;11177;50.966;10.070;2022-11-15T06:57:20;8.50;;;5.32;;
22026;SDS011;11177;50.966;10.070;2022-11-15T06:59:47;8.77;;;5.28;;
22026;SDS011;11177;50.966;10.070;2022-11-15T07:02:14;9.45;;;5.25;;
22026;SDS011;11177;50.966;10.070;2022-11-15T07:04:41;11.57;;;6.00;;
22026;SDS011;11177;50.966;10.070;2022-11-15T07:07:09;9.40;;;5.93;;
22026;SDS011;11177;50.966;10.070;2022-11-15T07:09:36;10.27;;;5.60;;
22026;SDS011;11177;50.966;10.070;2022-11-15T07:12:03;9.73;;;5.28;;
22026;SDS011;11177;50.966;10.070;2022-11-15T07:14:33;9.55;;;5.05;;
22026;SDS011;11177;50.966;10.070;2022-11-15T07:17:01;9.38;;;5.20;;
22026;SDS011;11177;50.966;10.070;2022-11-15T07:19:30;7.72;;;5.43;;
22026;SDS011;11177;50.966;10.070;2022-11-15T07:21:57;10.68;;;6.15;;
22026;SDS011;11177;50.966;10.070;2022-11-15T07:24:24;11.90;;;6.30;;
22026;SDS011;11177;50.966;10.070;2022-11-15T07:26:51;10.48;;;6.93;;
22026;SDS011;11177;50.966;10.070;2022-11-15T07:29:18;11.68;;;6.00;;
22026;SDS011;11177;50.966;10.070;2022-11-15T07:31:45;14.38;;;5.97;;
22026;SDS011;11177;50.966;10.070;2022-11-15T07:34:12;12.00;;;6.72;;
22026;SDS011;11177;50.966;10.070;2022-11-15T07:36:39;10.27;;;6.05;;
22026;SDS011;11177;50.966;10.070;2022-11-15T07:39:06;14.70;;;6.32;;
22026;SDS011;11177;50.966;10.070;2022-11-15T07:41:33;9.50;;;5.85;;
22026;SDS011;11177;50.966;10.070;2022-11-15T07:44:01;8.50;;;5.72;;
22026;SDS011;11177;50.966;10.070;2022-11-15T07:46:29;12.60;;;5.88;;
22026;SDS011;11177;50.966;10.070;2022-11-15T07:48:55;10.50;;;5.57;;
22026;SDS011;11177;50.966;10.070;2022-11-15T07:51:23;9.77;;;6.13;;
22026;SDS011;11177;50.966;10.070;2022-11-15T07:53:50;13.75;;;6.78;;
22026;SDS011;11177;50.966;10.070;2022-11-15T07:56:17;10.50;;;6.50;;
22026;SDS011;11177;50.966;10.070;2022-11-15T07:58:45;15.07;;;7.45;;
22026;SDS011;11177;50.966;10.070;2022-11-15T08:01:12;12.23;;;7.50;;
22026;SDS011;11177;50.966;10.070;2022-11-15T08:03:39;12.88;;;7.68;;
22026;SDS011;11177;50.966;10.070;2022-11-15T08:06:06;13.32;;;9.38;;
22026;SDS011;11177;50.966;10.070;2022-11-15T08:08:33;13.07;;;8.82;;
22026;SDS011;11177;50.966;10.070;2022-11-15T08:11:00;13.65;;;8.43;;
22026;SDS011;11177;50.966;10.070;2022-11-15T08:13:27;11.70;;;8.02;;
22026;SDS011;11177;50.966;10.070;2022-11-15T08:15:58;13.85;;;7.57;;
22026;SDS011;11177;50.966;10.070;2022-11-15T08:18:26;13.38;;;7.70;;
22026;SDS011;11177;50.966;10.070;2022-11-15T08:20:53;10.65;;;7.45;;
22026;SDS011;11177;50.966;10.070;2022-11-15T08:23:20;11.93;;;7.57;;
22026;SDS011;11177;50.966;10.070;2022-11-15T08:25:47;10.07;;;6.82;;
22026;SDS011;11177;50.966;10.070;2022-11-15T08:28:15;12.40;;;7.70;;
22026;SDS011;11177;50.966;10.070;2022-11-15T08:30:42;13.18;;;7.63;;
22026;SDS011;11177;50.966;10.070;2022-11-15T08:33:10;11.50;;;7.50;;
22026;SDS011;11177;50.966;10.070;2022-11-15T08:35:39;10.80;;;7.20;;
22026;SDS011;11177;50.966;10.070;2022-11-15T08:38:08;11.50;;;7.10;;
22026;SDS011;11177;50.966;10.070;2022-11-15T08:40:35;10.80;;;7.10;;
22026;SDS011;11177;50.966;10.070;2022-11-15T08:43:02;10.88;;;7.10;;
22026;SDS011;11177;50.966;10.070;2022-11-15T08:45:29;8.85;;;6.40;;
22026;SDS011;11177;50.966;10.070;2022-11-15T08:47:57;9.35;;;6.70;;
22026;SDS011;11177;50.966;10.070;2022-11-15T08:50:24;10.18;;;6.25;;
22026;SDS011;11177;50.966;10.070;2022-11-15T08:52:51;11.02;;;6.78;;
22026;SDS011;11177;50.966;10.070;2022-11-15T08:55:18;8.45;;;7.00;;
22026;SDS011;11177;50.966;10.070;2022-11-15T08:57:49;8.75;;;5.93;;
22026;SDS011;11177;50.966;10.070;2022-11-15T09:00:16;10.35;;;6.13;;
22026;SDS011;11177;50.966;10.070;2022-11-15T09:02:43;8.70;;;6.20;;
22026;SDS011;11177;50.966;10.070;2022-11-15T09:05:10;8.18;;;6.20;;
22026;SDS011;11177;50.966;10.070;2022-11-15T09:07:37;12.70;;;5.95;;
22026;SDS011;11177;50.966;10.070;2022-11-15T09:10:04;8.05;;;5.90;;
22026;SDS011;11177;50.966;10.070;2022-11-15T09:12:31;8.02;;;5.60;;
22026;SDS011;11177;50.966;10.070;2022-11-15T09:14:59;10.77;;;5.90;;
22026;SDS011;11177;50.966;10.070;2022-11-15T09:17:25;7.68;;;5.43;;
22026;SDS011;11177;50.966;10.070;2022-11-15T09:19:52;9.15;;;5.82;;
22026;SDS011;11177;50.966;10.070;2022-11-15T09:22:19;9.73;;;5.60;;
22026;SDS011;11177;50.966;10.070;2022-11-15T09:24:46;8.73;;;5.43;;
22026;SDS011;11177;50.966;10.070;2022-11-15T09:27:13;10.82;;;5.80;;
22026;SDS011;11177;50.966;10.070;2022-11-15T09:29:40;9.20;;;5.75;;
22026;SDS011;11177;50.966;10.070;2022-11-15T09:32:07;8.57;;;5.18;;
22026;SDS011;11177;50.966;10.070;2022-11-15T09:34:34;7.25;;;5.57;;
22026;SDS011;11177;50.966;10.070;2022-11-15T09:37:01;6.05;;;5.22;;
22026;SDS011;11177;50.966;10.070;2022-11-15T09:39:27;7.80;;;5.00;;
22026;SDS011;11177;50.966;10.070;2022-11-15T09:41:57;7.60;;;5.43;;
22026;SDS011;11177;50.966;10.070;2022-11-15T09:45:17;7.32;;;5.18;;
22026;SDS011;11177;50.966;10.070;2022-11-15T09:47:58;6.68;;;4.70;;
22026;SDS011;11177;50.966;10.070;2022-11-15T09:50:49;7.57;;;5.00;;
22026;SDS011;11177;50.966;10.070;2022-11-15T09:53:22;8.32;;;5.25;;
22026;SDS011;11177;50.966;10.070;2022-11-15T09:56:19;8.02;;;5.00;;
22026;SDS011;11177;50.966;10.070;2022-11-15T09:58:54;9.48;;;5.03;;
22026;SDS011;11177;50.966;10.070;2022-11-15T10:03:27;7.45;;;5.05;;
22026;SDS011;11177;50.966;10.070;2022-11-15T10:05:18;7.50;;;4.97;;
22026;SDS011;11177;50.966;10.070;2022-11-15T10:10:55;9.15;;;4.93;;
22026;SDS011;11177;50.966;10.070;2022-11-15T10:13:45;6.65;;;4.57;;
22026;SDS011;11177;50.966;10.070;2022-11-15T10:16:30;9.68;;;4.70;;
22026;SDS011;11177;50.966;10.070;2022-11-15T10:19:14;7.07;;;4.72;;
22026;SDS011;11177;50.966;10.070;2022-11-15T10:22:16;8.80;;;4.22;;
22026;SDS011;11177;50.966;10.070;2022-11-15T10:24:49;6.88;;;4.57;;
22026;SDS011;11177;50.966;10.070;2022-11-15T10:27:18;5.35;;;4.25;;
22026;SDS011;11177;50.966;10.070;2022-11-15T10:29:46;7.25;;;4.57;;
22026;SDS011;11177;50.966;10.070;2022-11-15T10:32:16;7.75;;;4.30;;
22026;SDS011;11177;50.966;10.070;2022-11-15T10:34:47;6.22;;;4.55;;
22026;SDS011;11177;50.966;10.070;2022-11-15T10:37:15;5.85;;;4.30;;
22026;SDS011;11177;50.966;10.070;2022-11-15T10:40:04;7.03;;;4.65;;
22026;SDS011;11177;50.966;10.070;2022-11-15T10:42:40;6.35;;;4.20;;
22026;SDS011;11177;50.966;10.070;2022-11-15T10:45:27;5.72;;;4.35;;
22026;SDS011;11177;50.966;10.070;2022-11-15T10:50:49;5.75;;;4.03;;
22026;SDS011;11177;50.966;10.070;2022-11-15T10:53:31;5.97;;;4.15;;
22026;SDS011;11177;50.966;10.070;2022-11-15T10:56:01;5.68;;;3.95;;
22026;SDS011;11177;50.966;10.070;2022-11-15T10:58:38;6.10;;;4.30;;
22026;SDS011;11177;50.966;10.070;2022-11-15T11:01:28;6.00;;;4.15;;
22026;SDS011;11177;50.966;10.070;2022-11-15T11:04:08;5.32;;;4.25;;
22026;SDS011;11177;50.966;10.070;2022-11-15T11:06:50;7.80;;;4.70;;
22026;SDS011;11177;50.966;10.070;2022-11-15T11:09:37;5.50;;;4.30;;
22026;SDS011;11177;50.966;10.070;2022-11-15T11:12:08;5.47;;;4.00;;
22026;SDS011;11177;50.966;10.070;2022-11-15T11:14:38;6.25;;;4.00;;
22026;SDS011;11177;50.966;10.070;2022-11-15T11:20:04;6.55;;;4.35;;
22026;SDS011;11177;50.966;10.070;2022-11-15T11:22:46;4.97;;;3.97;;
22026;SDS011;11177;50.966;10.070;2022-11-15T11:29:20;5.93;;;3.90;;
22026;SDS011;11177;50.966;10.070;2022-11-15T11:34:59;7.03;;;4.47;;
22026;SDS011;11177;50.966;10.070;2022-11-15T11:37:33;10.32;;;3.70;;
22026;SDS011;11177;50.966;10.070;2022-11-15T11:43:11;8.75;;;4.03;;
22026;SDS011;11177;50.966;10.070;2022-11-15T11:46:07;7.05;;;3.90;;
22026;SDS011;11177;50.966;10.070;2022-11-15T11:48:41;5.88;;;4.10;;
22026;SDS011;11177;50.966;10.070;2022-11-15T11:51:33;6.60;;;4.13;;
22026;SDS011;11177;50.966;10.070;2022-11-15T11:54:05;4.50;;;3.75;;
22026;SDS011;11177;50.966;10.070;2022-11-15T11:56:39;4.35;;;3.58;;
22026;SDS011;11177;50.966;10.070;2022-11-15T11:59:24;5.28;;;3.80;;
22026;SDS011;11177;50.966;10.070;2022-11-15T12:02:18;5.57;;;3.65;;
22026;SDS011;11177;50.966;10.070;2022-11-15T12:04:49;4.40;;;3.72;;
22026;SDS011;11177;50.966;10.070;2022-11-15T12:07:25;9.50;;;4.18;;
22026;SDS011;11177;50.966;10.070;2022-11-15T12:09:59;6.63;;;4.20;;
22026;SDS011;11177;50.966;10.070;2022-11-15T12:12:32;5.50;;;4.53;;
22026;SDS011;11177;50.966;10.070;2022-11-15T12:15:13;7.50;;;5.50;;
22026;SDS011;11177;50.966;10.070;2022-11-15T12:17:45;6.00;;;4.50;;
22026;SDS011;11177;50.966;10.070;2022-11-15T12:20:22;5.90;;;4.50;;
22026;SDS011;11177;50.966;10.070;2022-11-15T12:28:58;5.25;;;3.45;;
22026;SDS011;11177;50.966;10.070;2022-11-15T12:31:37;4.63;;;3.70;;
22026;SDS011;11177;50.966;10.070;2022-11-15T12:40:31;7.07;;;3.42;;
22026;SDS011;11177;50.966;10.070;2022-11-15T12:45:30;6.68;;;3.90;;
22026;SDS011;11177;50.966;10.070;2022-11-15T12:51:04;8.23;;;4.82;;
22026;SDS011;11177;50.966;10.070;2022-11-15T12:53:32;9.95;;;5.03;;
22026;SDS011;11177;50.966;10.070;2022-11-15T12:58:49;9.30;;;5.47;;
22026;SDS011;11177;50.966;10.070;2022-11-15T13:07:05;9.10;;;4.75;;
22026;SDS011;11177;50.966;10.070;2022-11-15T13:15:35;4.28;;;3.22;;
22026;SDS011;11177;50.966;10.070;2022-11-15T13:20:58;6.43;;;3.30;;
22026;SDS011;11177;50.966;10.070;2022-11-15T13:23:28;5.05;;;3.50;;
22026;SDS011;11177;50.966;10.070;2022-11-15T13:26:05;3.85;;;3.10;;
22026;SDS011;11177;50.966;10.070;2022-11-15T13:28:42;5.40;;;3.33;;
22026;SDS011;11177;50.966;10.070;2022-11-15T13:31:24;3.53;;;2.90;;
22026;SDS011;11177;50.966;10.070;2022-11-15T13:33:55;7.07;;;3.50;;
22026;SDS011;11177;50.966;10.070;2022-11-15T13:36:32;4.90;;;3.50;;
22026;SDS011;11177;50.966;10.070;2022-11-15T13:41:32;4.95;;;3.67;;
22026;SDS011;11177;50.966;10.070;2022-11-15T13:44:01;3.70;;;3.30;;
22026;SDS011;11177;50.966;10.070;2022-11-15T13:46:32;4.88;;;3.60;;
22026;SDS011;11177;50.966;10.070;2022-11-15T13:49:03;8.25;;;4.30;;
22026;SDS011;11177;50.966;10.070;2022-11-15T13:51:41;4.65;;;3.30;;
22026;SDS011;11177;50.966;10.070;2022-11-15T13:54:13;5.35;;;3.63;;
22026;SDS011;11177;50.966;10.070;2022-11-15T13:56:44;7.35;;;3.65;;
22026;SDS011;11177;50.966;10.070;2022-11-15T13:59:19;6.88;;;3.70;;
22026;SDS011;11177;50.966;10.070;2022-11-15T14:02:11;11.77;;;5.25;;
22026;SDS011;11177;50.966;10.070;2022-11-15T14:04:45;5.57;;;4.03;;
22026;SDS011;11177;50.966;10.070;2022-11-15T14:07:26;6.13;;;4.07;;
22026;SDS011;11177;50.966;10.070;2022-11-15T14:09:56;6.18;;;3.55;;
22026;SDS011;11177;50.966;10.070;2022-11-15T14:12:33;5.47;;;3.53;;
22026;SDS011;11177;50.966;10.070;2022-11-15T14:15:18;5.72;;;3.65;;
22026;SDS011;11177;50.966;10.070;2022-11-15T14:17:51;4.75;;;3.22;;
22026;SDS011;11177;50.966;10.070;2022-11-15T14:20:28;7.40;;;3.30;;
22026;SDS011;11177;50.966;10.070;2022-11-15T14:23:00;4.57;;;3.10;;
22026;SDS011;11177;50.966;10.070;2022-11-15T14:25:30;7.63;;;3.67;;
22026;SDS011;11177;50.966;10.070;2022-11-15T14:28:12;5.20;;;3.35;;
22026;SDS011;11177;50.966;10.070;2022-11-15T14:30:43;4.45;;;3.10;;
22026;SDS011;11177;50.966;10.070;2022-11-15T14:35:46;5.05;;;3.38;;
22026;SDS011;11177;50.966;10.070;2022-11-15T14:38:14;8.60;;;3.60;;
22026;SDS011;11177;50.966;10.070;2022-11-15T14:40:41;3.97;;;3.38;;
22026;SDS011;11177;50.966;10.070;2022-11-15T14:43:09;5.65;;;3.10;;
22026;SDS011;11177;50.966;10.070;2022-11-15T14:45:37;6.15;;;3.50;;
22026;SDS011;11177;50.966;10.070;2022-11-15T14:48:05;4.88;;;3.47;;
22026;SDS011;11177;50.966;10.070;2022-11-15T14:50:32;4.80;;;3.28;;
22026;SDS011;11177;50.966;10.070;2022-11-15T14:52:59;6.43;;;3.08;;
22026;SDS011;11177;50.966;10.070;2022-11-15T14:55:27;3.67;;;2.97;;
22026;SDS011;11177;50.966;10.070;2022-11-15T14:57:58;4.93;;;3.70;;
22026;SDS011;11177;50.966;10.070;2022-11-15T15:00:25;6.80;;;4.55;;
22026;SDS011;11177;50.966;10.070;2022-11-15T15:02:59;8.02;;;4.50;;
22026;SDS011;11177;50.966;10.070;2022-11-15T15:05:36;5.97;;;4.15;;
22026;SDS011;11177;50.966;10.070;2022-11-15T15:08:08;8.18;;;3.67;;
22026;SDS011;11177;50.966;10.070;2022-11-15T15:10:37;5.25;;;3.90;;
22026;SDS011;11177;50.966;10.070;2022-11-15T15:13:17;7.85;;;4.38;;
22026;SDS011;11177;50.966;10.070;2022-11-15T15:15:46;12.77;;;7.00;;
22026;SDS011;11177;50.966;10.070;2022-11-15T15:18:14;10.98;;;6.60;;
22026;SDS011;11177;50.966;10.070;2022-11-15T15:20:42;8.85;;;5.45;;
22026;SDS011;11177;50.966;10.070;2022-11-15T15:23:17;9.93;;;5.53;;
22026;SDS011;11177;50.966;10.070;2022-11-15T15:25:46;7.07;;;4.75;;
22026;SDS011;11177;50.966;10.070;2022-11-15T15:28:15;6.80;;;4.20;;
22026;SDS011;11177;50.966;10.070;2022-11-15T15:30:42;7.45;;;4.45;;
22026;SDS011;11177;50.966;10.070;2022-11-15T15:33:09;8.68;;;4.10;;
22026;SDS011;11177;50.966;10.070;2022-11-15T15:35:36;8.25;;;4.28;;
22026;SDS011;11177;50.966;10.070;2022-11-15T15:38:03;5.50;;;4.32;;
22026;SDS011;11177;50.966;10.070;2022-11-15T15:40:31;9.48;;;4.95;;
22026;SDS011;11177;50.966;10.070;2022-11-15T15:42:58;8.63;;;4.60;;
22026;SDS011;11177;50.966;10.070;2022-11-15T15:45:26;7.15;;;5.00;;
22026;SDS011;11177;50.966;10.070;2022-11-15T15:47:54;6.10;;;4.57;;
22026;SDS011;11177;50.966;10.070;2022-11-15T15:52:55;6.18;;;4.45;;
22026;SDS011;11177;50.966;10.070;2022-11-15T15:55:24;7.25;;;4.50;;
22026;SDS011;11177;50.966;10.070;2022-11-15T15:57:51;7.63;;;4.63;;
22026;SDS011;11177;50.966;10.070;2022-11-15T16:00:19;6.40;;;4.47;;
22026;SDS011;11177;50.966;10.070;2022-11-15T16:02:46;8.52;;;4.85;;
22026;SDS011;11177;50.966;10.070;2022-11-15T16:05:13;9.52;;;5.18;;
22026;SDS011;11177;50.966;10.070;2022-11-15T16:07:40;13.27;;;7.50;;
22026;SDS011;11177;50.966;10.070;2022-11-15T16:12:53;7.65;;;5.22;;
22026;SDS011;11177;50.966;10.070;2022-11-15T16:15:21;9.98;;;6.55;;
22026;SDS011;11177;50.966;10.070;2022-11-15T16:17:53;15.13;;;9.85;;
22026;SDS011;11177;50.966;10.070;2022-11-15T16:23:02;10.32;;;6.30;;
22026;SDS011;11177;50.966;10.070;2022-11-15T16:25:42;11.57;;;8.13;;
22026;SDS011;11177;50.966;10.070;2022-11-15T16:28:14;11.95;;;8.20;;
22026;SDS011;11177;50.966;10.070;2022-11-15T16:33:32;23.02;;;12.43;;